| Date | Time | Temp. (oF) | Dew Point (oF) | Rel. Hum. (%) | Press. (in.) | Wind Dir. | Wind Speed (mph) | Hourly Rainfall (in.) |
|
|---|---|---|---|---|---|---|---|---|---|
| 1 | 12/08 | 00:00 | 22 | 12 | 65 | 30.66 | W | 3 | 0.00 |
| 2 | 12/07 | 23:00 | 23 | 12 | 63 | 30.66 | W | 7 | 0.00 |
| 3 | 12/07 | 22:00 | 23 | 12 | 63 | 30.64 | W | 4 | 0.00 |
| 4 | 12/07 | 21:00 | 24 | 12 | 60 | 30.61 | SW | 5 | 0.00 |
| 5 | 12/07 | 20:00 | 25 | 12 | 59 | 30.60 | WNW | 2 | 0.00 |
| 6 | 12/07 | 19:00 | 25 | 12 | 58 | 30.57 | WNW | 6 | 0.00 |
| 7 | 12/07 | 18:00 | 26 | 12 | 57 | 30.54 | WNW | 10 | 0.00 |
| 8 | 12/07 | 17:00 | 27 | 13 | 57 | 30.51 | NW | 12 | 0.00 |
| 9 | 12/07 | 16:00 | 29 | 13 | 53 | 30.46 | WNW | 7 | 0.00 |
| 10 | 12/07 | 15:00 | 30 | 14 | 52 | 30.43 | W | 10 | 0.00 |
| 11 | 12/07 | 14:00 | 31 | 14 | 51 | 30.42 | SSW | 8 | 0.00 |
| 12 | 12/07 | 13:00 | 32 | 16 | 53 | 30.43 | W | 11 | 0.00 |
| 13 | 12/07 | 12:00 | 31 | 16 | 54 | 30.44 | NW | 9 | 0.00 |
| 14 | 12/07 | 11:00 | 28 | 16 | 62 | 30.46 | W | 10 | 0.00 |
| 15 | 12/07 | 10:00 | 28 | 17 | 65 | 30.45 | WSW | 6 | 0.00 |
| 16 | 12/07 | 09:00 | 24 | 19 | 84 | 30.44 | SW | 1 | 0.00 |
| 17 | 12/07 | 08:00 | 21 | 16 | 82 | 30.40 | W | 1 | 0.00 |
| 18 | 12/07 | 07:00 | 21 | 15 | 80 | 30.38 | SW | 2 | 0.00 |
| 19 | 12/07 | 06:00 | 21 | 15 | 79 | 30.36 | SW | 4 | 0.00 |
| 20 | 12/07 | 05:00 | 22 | 15 | 76 | 30.34 | SW | 3 | 0.00 |
| 21 | 12/07 | 04:00 | 23 | 16 | 75 | 30.33 | W | 2 | 0.00 |
| 22 | 12/07 | 03:00 | 22 | 15 | 76 | 30.32 | SSW | 3 | 0.00 |
| 23 | 12/07 | 02:00 | 23 | 15 | 73 | 30.32 | WSW | 3 | 0.00 |
| 24 | 12/07 | 01:00 | 24 | 15 | 71 | 30.31 | WNW | 4 | 0.00 |